sensor_id;sensor_type;location;lat;lon;timestamp;temperature;humidity
70676;DHT22;59069;52.242;20.900;2024-03-23T00:54:16;9.69;83.72
70676;DHT22;59069;52.242;20.900;2024-03-23T00:56:42;9.68;83.86
70676;DHT22;59069;52.242;20.900;2024-03-23T00:59:07;9.67;84.05
70676;DHT22;59069;52.242;20.900;2024-03-23T01:01:32;9.67;84.24
70676;DHT22;59069;52.242;20.900;2024-03-23T01:03:58;9.61;84.37
70676;DHT22;59069;52.242;20.900;2024-03-23T01:06:23;9.62;84.51
70676;DHT22;59069;52.242;20.900;2024-03-23T01:08:49;9.59;84.66
70676;DHT22;59069;52.242;20.900;2024-03-23T01:11:14;9.59;84.82
70676;DHT22;59069;52.242;20.900;2024-03-23T01:13:39;9.57;84.97
70676;DHT22;59069;52.242;20.900;2024-03-23T01:16:05;9.55;85.05
70676;DHT22;59069;52.242;20.900;2024-03-23T01:18:30;9.52;85.22
70676;DHT22;59069;52.242;20.900;2024-03-23T01:20:55;9.51;85.41
70676;DHT22;59069;52.242;20.900;2024-03-23T01:23:21;9.51;85.53
70676;DHT22;59069;52.242;20.900;2024-03-23T01:25:53;9.52;85.68
70676;DHT22;59069;52.242;20.900;2024-03-23T01:28:20;9.52;85.73
70676;DHT22;59069;52.242;20.900;2024-03-23T01:30:45;9.51;85.85
70676;DHT22;59069;52.242;20.900;2024-03-23T01:33:11;9.51;86.00
70676;DHT22;59069;52.242;20.900;2024-03-23T01:35:36;9.49;86.04
70676;DHT22;59069;52.242;20.900;2024-03-23T01:38:01;9.49;86.17
70676;DHT22;59069;52.242;20.900;2024-03-23T01:40:27;9.48;86.23
70676;DHT22;59069;52.242;20.900;2024-03-23T01:43:04;9.47;86.36
70676;DHT22;59069;52.242;20.900;2024-03-23T01:45:30;9.44;86.52
70676;DHT22;59069;52.242;20.900;2024-03-23T01:47:56;9.47;86.58
70676;DHT22;59069;52.242;20.900;2024-03-23T01:50:21;9.45;86.69
70676;DHT22;59069;52.242;20.900;2024-03-23T01:52:48;9.45;86.75
70676;DHT22;59069;52.242;20.900;2024-03-23T01:55:13;9.44;86.92
70676;DHT22;59069;52.242;20.900;2024-03-23T01:57:39;9.47;86.99
70676;DHT22;59069;52.242;20.900;2024-03-23T02:00:05;9.44;87.04
70676;DHT22;59069;52.242;20.900;2024-03-23T02:02:31;9.47;87.15
70676;DHT22;59069;52.242;20.900;2024-03-23T02:04:56;9.45;87.23
70676;DHT22;59069;52.242;20.900;2024-03-23T02:07:22;9.45;87.25
70676;DHT22;59069;52.242;20.900;2024-03-23T02:09:49;9.45;87.38
70676;DHT22;59069;52.242;20.900;2024-03-23T02:12:14;9.47;87.43
70676;DHT22;59069;52.242;20.900;2024-03-23T02:14:40;9.42;87.53
70676;DHT22;59069;52.242;20.900;2024-03-23T02:17:05;9.45;87.58
70676;DHT22;59069;52.242;20.900;2024-03-23T02:19:31;9.41;87.63
70676;DHT22;59069;52.242;20.900;2024-03-23T02:21:56;9.41;87.77
70676;DHT22;59069;52.242;20.900;2024-03-23T02:24:21;9.35;87.92
70676;DHT22;59069;52.242;20.900;2024-03-23T02:26:47;9.38;88.10
70676;DHT22;59069;52.242;20.900;2024-03-23T02:29:13;9.38;88.17
70676;DHT22;59069;52.242;20.900;2024-03-23T02:31:39;9.37;88.30
70676;DHT22;59069;52.242;20.900;2024-03-23T02:34:04;9.38;88.43
70676;DHT22;59069;52.242;20.900;2024-03-23T02:36:30;9.39;88.51
70676;DHT22;59069;52.242;20.900;2024-03-23T02:38:56;9.39;88.57
70676;DHT22;59069;52.242;20.900;2024-03-23T02:41:21;9.38;88.67
70676;DHT22;59069;52.242;20.900;2024-03-23T02:43:52;9.38;88.72
70676;DHT22;59069;52.242;20.900;2024-03-23T02:46:17;9.39;88.80
70676;DHT22;59069;52.242;20.900;2024-03-23T02:48:42;9.39;88.85
70676;DHT22;59069;52.242;20.900;2024-03-23T02:51:08;9.39;89.01
70676;DHT22;59069;52.242;20.900;2024-03-23T02:53:34;9.39;89.02
70676;DHT22;59069;52.242;20.900;2024-03-23T02:55:59;9.41;89.10
70676;DHT22;59069;52.242;20.900;2024-03-23T02:58:24;9.42;89.16
70676;DHT22;59069;52.242;20.900;2024-03-23T03:00:50;9.42;89.25
70676;DHT22;59069;52.242;20.900;2024-03-23T03:03:15;9.41;89.38
70676;DHT22;59069;52.242;20.900;2024-03-23T03:05:41;9.42;89.44
70676;DHT22;59069;52.242;20.900;2024-03-23T03:08:06;9.45;89.55
70676;DHT22;59069;52.242;20.900;2024-03-23T03:10:31;9.44;89.61
70676;DHT22;59069;52.242;20.900;2024-03-23T03:13:00;9.44;89.72
70676;DHT22;59069;52.242;20.900;2024-03-23T03:15:25;9.47;89.72
70676;DHT22;59069;52.242;20.900;2024-03-23T03:17:51;9.42;89.74
70676;DHT22;59069;52.242;20.900;2024-03-23T03:20:16;9.44;89.85
70676;DHT22;59069;52.242;20.900;2024-03-23T03:22:43;9.41;89.90
70676;DHT22;59069;52.242;20.900;2024-03-23T03:25:09;9.42;89.94
70676;DHT22;59069;52.242;20.900;2024-03-23T03:27:34;9.45;90.01
70676;DHT22;59069;52.242;20.900;2024-03-23T03:30:00;9.44;90.10
70676;DHT22;59069;52.242;20.900;2024-03-23T03:32:29;9.42;90.21
70676;DHT22;59069;52.242;20.900;2024-03-23T03:34:54;9.42;90.29
70676;DHT22;59069;52.242;20.900;2024-03-23T03:37:19;9.44;90.34
70676;DHT22;59069;52.242;20.900;2024-03-23T03:39:45;9.44;90.43
70676;DHT22;59069;52.242;20.900;2024-03-23T03:42:10;9.42;90.53
70676;DHT22;59069;52.242;20.900;2024-03-23T03:44:36;9.41;90.56
70676;DHT22;59069;52.242;20.900;2024-03-23T03:47:02;9.42;90.63
70676;DHT22;59069;52.242;20.900;2024-03-23T03:49:27;9.44;90.67
70676;DHT22;59069;52.242;20.900;2024-03-23T03:51:53;9.47;90.65
70676;DHT22;59069;52.242;20.900;2024-03-23T03:54:18;9.47;90.71
70676;DHT22;59069;52.242;20.900;2024-03-23T03:56:43;9.45;90.75
70676;DHT22;59069;52.242;20.900;2024-03-23T03:59:09;9.45;90.80
70676;DHT22;59069;52.242;20.900;2024-03-23T04:01:34;9.45;90.87
70676;DHT22;59069;52.242;20.900;2024-03-23T04:04:00;9.47;90.98
70676;DHT22;59069;52.242;20.900;2024-03-23T04:06:26;9.51;90.96
70676;DHT22;59069;52.242;20.900;2024-03-23T04:08:51;9.51;90.91
70676;DHT22;59069;52.242;20.900;2024-03-23T04:11:17;9.49;90.92
70676;DHT22;59069;52.242;20.900;2024-03-23T04:13:43;9.51;90.92
70676;DHT22;59069;52.242;20.900;2024-03-23T04:16:08;9.49;91.00
70676;DHT22;59069;52.242;20.900;2024-03-23T04:18:34;9.55;91.05
70676;DHT22;59069;52.242;20.900;2024-03-23T04:21:00;9.54;91.02
70676;DHT22;59069;52.242;20.900;2024-03-23T04:23:25;9.55;91.05
70676;DHT22;59069;52.242;20.900;2024-03-23T04:25:51;9.54;91.04
70676;DHT22;59069;52.242;20.900;2024-03-23T04:28:18;9.55;91.12
70676;DHT22;59069;52.242;20.900;2024-03-23T04:30:44;9.54;91.14
70676;DHT22;59069;52.242;20.900;2024-03-23T04:33:09;9.58;91.14
70676;DHT22;59069;52.242;20.900;2024-03-23T04:35:34;9.59;91.09
70676;DHT22;59069;52.242;20.900;2024-03-23T04:38:00;9.58;91.07
70676;DHT22;59069;52.242;20.900;2024-03-23T04:40:26;9.59;91.09
70676;DHT22;59069;52.242;20.900;2024-03-23T04:42:51;9.62;91.04
70676;DHT22;59069;52.242;20.900;2024-03-23T04:45:17;9.58;91.01
70676;DHT22;59069;52.242;20.900;2024-03-23T04:47:42;9.61;91.01
70676;DHT22;59069;52.242;20.900;2024-03-23T04:50:08;9.59;91.01
70676;DHT22;59069;52.242;20.900;2024-03-23T04:52:35;9.62;91.03
70676;DHT22;59069;52.242;20.900;2024-03-23T04:55:01;9.62;91.03
70676;DHT22;59069;52.242;20.900;2024-03-23T04:57:26;9.65;91.10
70676;DHT22;59069;52.242;20.900;2024-03-23T04:59:51;9.61;91.06
70676;DHT22;59069;52.242;20.900;2024-03-23T05:02:17;9.65;91.11
70676;DHT22;59069;52.242;20.900;2024-03-23T05:04:42;9.67;91.05
70676;DHT22;59069;52.242;20.900;2024-03-23T05:07:08;9.69;90.97
70676;DHT22;59069;52.242;20.900;2024-03-23T05:09:33;9.69;90.92
70676;DHT22;59069;52.242;20.900;2024-03-23T05:11:59;9.69;90.94
70676;DHT22;59069;52.242;20.900;2024-03-23T05:14:27;9.69;90.94
70676;DHT22;59069;52.242;20.900;2024-03-23T05:16:53;9.67;90.96
70676;DHT22;59069;52.242;20.900;2024-03-23T05:19:18;9.69;90.93
70676;DHT22;59069;52.242;20.900;2024-03-23T05:21:44;9.72;90.87
70676;DHT22;59069;52.242;20.900;2024-03-23T05:24:10;9.69;90.81
70676;DHT22;59069;52.242;20.900;2024-03-23T05:26:35;9.74;90.76
70676;DHT22;59069;52.242;20.900;2024-03-23T05:29:01;9.74;90.73
70676;DHT22;59069;52.242;20.900;2024-03-23T05:31:28;9.74;90.72
70676;DHT22;59069;52.242;20.900;2024-03-23T05:33:54;9.72;90.70
70676;DHT22;59069;52.242;20.900;2024-03-23T05:36:20;9.75;90.68
70676;DHT22;59069;52.242;20.900;2024-03-23T05:38:45;9.75;90.68
70676;DHT22;59069;52.242;20.900;2024-03-23T05:41:10;9.77;90.61
70676;DHT22;59069;52.242;20.900;2024-03-23T05:43:36;9.74;90.62
70676;DHT22;59069;52.242;20.900;2024-03-23T05:46:02;9.75;90.63
70676;DHT22;59069;52.242;20.900;2024-03-23T05:48:28;9.72;90.61
70676;DHT22;59069;52.242;20.900;2024-03-23T05:50:55;9.77;90.68
70676;DHT22;59069;52.242;20.900;2024-03-23T05:53:20;9.75;90.67
70676;DHT22;59069;52.242;20.900;2024-03-23T05:55:46;9.75;90.67
70676;DHT22;59069;52.242;20.900;2024-03-23T05:58:14;9.75;90.61
70676;DHT22;59069;52.242;20.900;2024-03-23T06:00:40;9.75;90.57
70676;DHT22;59069;52.242;20.900;2024-03-23T06:03:05;9.74;90.58
70676;DHT22;59069;52.242;20.900;2024-03-23T06:05:30;9.75;90.66
70676;DHT22;59069;52.242;20.900;2024-03-23T06:07:56;9.78;90.71
70676;DHT22;59069;52.242;20.900;2024-03-23T06:10:21;9.75;90.63
70676;DHT22;59069;52.242;20.900;2024-03-23T06:12:46;9.79;90.69
70676;DHT22;59069;52.242;20.900;2024-03-23T06:15:12;9.77;90.70
70676;DHT22;59069;52.242;20.900;2024-03-23T06:17:37;9.79;90.64
70676;DHT22;59069;52.242;20.900;2024-03-23T06:20:03;9.81;90.59
70676;DHT22;59069;52.242;20.900;2024-03-23T06:22:29;9.85;90.54
70676;DHT22;59069;52.242;20.900;2024-03-23T06:24:54;9.86;90.54
70676;DHT22;59069;52.242;20.900;2024-03-23T06:27:20;9.86;90.63
70676;DHT22;59069;52.242;20.900;2024-03-23T06:29:45;9.88;90.48
70676;DHT22;59069;52.242;20.900;2024-03-23T06:32:11;9.90;90.37
70676;DHT22;59069;52.242;20.900;2024-03-23T06:34:36;9.90;90.31
70676;DHT22;59069;52.242;20.900;2024-03-23T06:37:01;9.90;90.21
70676;DHT22;59069;52.242;20.900;2024-03-23T06:39:28;9.93;90.05
70676;DHT22;59069;52.242;20.900;2024-03-23T06:41:54;9.95;89.97
70676;DHT22;59069;52.242;20.900;2024-03-23T06:44:20;9.93;90.05
70676;DHT22;59069;52.242;20.900;2024-03-23T06:46:45;9.92;90.15
70676;DHT22;59069;52.242;20.900;2024-03-23T06:49:11;9.93;90.20
70676;DHT22;59069;52.242;20.900;2024-03-23T06:51:36;9.98;90.23
70676;DHT22;59069;52.242;20.900;2024-03-23T06:54:03;10.00;90.22
70676;DHT22;59069;52.242;20.900;2024-03-23T06:56:29;10.06;90.15
70676;DHT22;59069;52.242;20.900;2024-03-23T06:58:55;10.08;90.02
70676;DHT22;59069;52.242;20.900;2024-03-23T07:01:21;10.09;89.95
70676;DHT22;59069;52.242;20.900;2024-03-23T07:03:46;10.10;89.77
70676;DHT22;59069;52.242;20.900;2024-03-23T07:06:12;10.09;89.65
70676;DHT22;59069;52.242;20.900;2024-03-23T07:08:37;10.09;89.72
70676;DHT22;59069;52.242;20.900;2024-03-23T07:11:02;10.10;89.80
70676;DHT22;59069;52.242;20.900;2024-03-23T07:13:28;10.14;89.75
70676;DHT22;59069;52.242;20.900;2024-03-23T07:15:54;10.14;89.62
70676;DHT22;59069;52.242;20.900;2024-03-23T07:18:21;10.17;89.52
70676;DHT22;59069;52.242;20.900;2024-03-23T07:20:56;10.17;89.63
70676;DHT22;59069;52.242;20.900;2024-03-23T07:23:22;10.17;89.69
70676;DHT22;59069;52.242;20.900;2024-03-23T07:26:00;10.23;89.73
70676;DHT22;59069;52.242;20.900;2024-03-23T07:28:26;10.26;89.76
70676;DHT22;59069;52.242;20.900;2024-03-23T07:31:05;10.24;89.73
70676;DHT22;59069;52.242;20.900;2024-03-23T07:33:32;10.24;89.54
70676;DHT22;59069;52.242;20.900;2024-03-23T07:35:58;10.21;89.43
70676;DHT22;59069;52.242;20.900;2024-03-23T07:38:26;10.17;89.40
70676;DHT22;59069;52.242;20.900;2024-03-23T07:40:52;10.16;89.54
70676;DHT22;59069;52.242;20.900;2024-03-23T07:43:24;10.13;89.63
70676;DHT22;59069;52.242;20.900;2024-03-23T07:45:52;10.13;89.80
70676;DHT22;59069;52.242;20.900;2024-03-23T07:48:18;10.13;89.99
70676;DHT22;59069;52.242;20.900;2024-03-23T07:50:43;10.17;90.11
70676;DHT22;59069;52.242;20.900;2024-03-23T07:53:08;10.20;90.13
70676;DHT22;59069;52.242;20.900;2024-03-23T07:55:34;10.29;90.27
70676;DHT22;59069;52.242;20.900;2024-03-23T07:57:59;10.36;90.53
70676;DHT22;59069;52.242;20.900;2024-03-23T08:00:24;10.44;90.42
70676;DHT22;59069;52.242;20.900;2024-03-23T08:02:51;10.51;90.40
70676;DHT22;59069;52.242;20.900;2024-03-23T08:05:16;10.53;90.04
70676;DHT22;59069;52.242;20.900;2024-03-23T08:07:42;10.54;89.60
70676;DHT22;59069;52.242;20.900;2024-03-23T08:10:07;10.56;89.41
70676;DHT22;59069;52.242;20.900;2024-03-23T08:12:32;10.59;89.13
70676;DHT22;59069;52.242;20.900;2024-03-23T08:14:58;10.60;89.07
70676;DHT22;59069;52.242;20.900;2024-03-23T08:17:23;10.63;88.89
70676;DHT22;59069;52.242;20.900;2024-03-23T08:19:48;10.64;88.70
70676;DHT22;59069;52.242;20.900;2024-03-23T08:22:14;10.64;88.53
70676;DHT22;59069;52.242;20.900;2024-03-23T08:24:39;10.71;88.87
70676;DHT22;59069;52.242;20.900;2024-03-23T08:27:04;10.80;89.15
70676;DHT22;59069;52.242;20.900;2024-03-23T08:29:30;10.87;89.18
70676;DHT22;59069;52.242;20.900;2024-03-23T08:31:55;10.94;88.68
70676;DHT22;59069;52.242;20.900;2024-03-23T08:34:21;10.98;88.58
70676;DHT22;59069;52.242;20.900;2024-03-23T08:36:46;11.09;88.82
70676;DHT22;59069;52.242;20.900;2024-03-23T08:39:11;11.38;89.85
70676;DHT22;59069;52.242;20.900;2024-03-23T08:41:36;11.66;90.72
70676;DHT22;59069;52.242;20.900;2024-03-23T08:44:02;11.89;89.13
70676;DHT22;59069;52.242;20.900;2024-03-23T08:46:27;12.13;88.80
70676;DHT22;59069;52.242;20.900;2024-03-23T08:48:53;12.41;88.46
70676;DHT22;59069;52.242;20.900;2024-03-23T08:51:18;12.69;88.49
70676;DHT22;59069;52.242;20.900;2024-03-23T08:53:44;12.88;86.12
70676;DHT22;59069;52.242;20.900;2024-03-23T08:56:10;12.85;84.45
70676;DHT22;59069;52.242;20.900;2024-03-23T08:58:37;12.82;83.70
70676;DHT22;59069;52.242;20.900;2024-03-23T09:01:08;12.78;83.23
70676;DHT22;59069;52.242;20.900;2024-03-23T09:03:33;12.83;83.15
70676;DHT22;59069;52.242;20.900;2024-03-23T09:06:06;12.95;83.45
70676;DHT22;59069;52.242;20.900;2024-03-23T09:08:31;13.07;82.75
70676;DHT22;59069;52.242;20.900;2024-03-23T09:10:56;13.17;81.73
70676;DHT22;59069;52.242;20.900;2024-03-23T09:13:22;13.27;81.88
70676;DHT22;59069;52.242;20.900;2024-03-23T09:15:51;13.57;83.75
70676;DHT22;59069;52.242;20.900;2024-03-23T09:18:19;14.09;86.84
70676;DHT22;59069;52.242;20.900;2024-03-23T09:20:44;14.45;82.04
70676;DHT22;59069;52.242;20.900;2024-03-23T09:23:10;14.66;78.03
70676;DHT22;59069;52.242;20.900;2024-03-23T09:25:36;14.60;74.94
70676;DHT22;59069;52.242;20.900;2024-03-23T09:28:02;14.47;74.58
70676;DHT22;59069;52.242;20.900;2024-03-23T09:30:28;14.33;74.12
70676;DHT22;59069;52.242;20.900;2024-03-23T09:32:53;14.18;74.46
70676;DHT22;59069;52.242;20.900;2024-03-23T09:35:18;14.06;74.75
70676;DHT22;59069;52.242;20.900;2024-03-23T09:37:44;13.92;74.42
70676;DHT22;59069;52.242;20.900;2024-03-23T09:40:11;13.81;74.91
70676;DHT22;59069;52.242;20.900;2024-03-23T09:42:36;13.77;75.02
70676;DHT22;59069;52.242;20.900;2024-03-23T09:45:02;13.73;75.22
70676;DHT22;59069;52.242;20.900;2024-03-23T09:47:30;13.85;76.51
70676;DHT22;59069;52.242;20.900;2024-03-23T09:49:56;14.09;77.49
70676;DHT22;59069;52.242;20.900;2024-03-23T09:52:21;14.53;80.04
70676;DHT22;59069;52.242;20.900;2024-03-23T09:54:47;15.11;77.51
70676;DHT22;59069;52.242;20.900;2024-03-23T09:57:12;15.34;71.70
70676;DHT22;59069;52.242;20.900;2024-03-23T09:59:37;15.52;71.53
70676;DHT22;59069;52.242;20.900;2024-03-23T10:02:03;15.61;70.32
70676;DHT22;59069;52.242;20.900;2024-03-23T10:04:39;15.48;69.80
70676;DHT22;59069;52.242;20.900;2024-03-23T10:07:11;15.54;73.29
70676;DHT22;59069;52.242;20.900;2024-03-23T10:09:38;15.90;73.83
70676;DHT22;59069;52.242;20.900;2024-03-23T10:12:10;16.40;73.27
70676;DHT22;59069;52.242;20.900;2024-03-23T10:14:37;17.29;78.80
70676;DHT22;59069;52.242;20.900;2024-03-23T10:17:20;18.32;69.84
70676;DHT22;59069;52.242;20.900;2024-03-23T10:19:49;18.92;58.43
70676;DHT22;59069;52.242;20.900;2024-03-23T10:22:20;19.30;60.65
70676;DHT22;59069;52.242;20.900;2024-03-23T10:24:47;19.58;56.50
70676;DHT22;59069;52.242;20.900;2024-03-23T10:27:16;19.84;53.37
70676;DHT22;59069;52.242;20.900;2024-03-23T10:29:43;19.82;52.72
70676;DHT22;59069;52.242;20.900;2024-03-23T10:32:13;19.71;50.87
70676;DHT22;59069;52.242;20.900;2024-03-23T10:34:40;19.38;51.79
70676;DHT22;59069;52.242;20.900;2024-03-23T10:37:06;19.44;53.85
70676;DHT22;59069;52.242;20.900;2024-03-23T10:39:34;19.67;54.17
70676;DHT22;59069;52.242;20.900;2024-03-23T10:42:02;20.47;58.31
70676;DHT22;59069;52.242;20.900;2024-03-23T10:44:29;21.54;55.57
70676;DHT22;59069;52.242;20.900;2024-03-23T10:46:59;22.03;48.29
70676;DHT22;59069;52.242;20.900;2024-03-23T10:49:35;21.78;42.67
70676;DHT22;59069;52.242;20.900;2024-03-23T10:52:04;21.18;44.05
70676;DHT22;59069;52.242;20.900;2024-03-23T10:54:31;20.63;45.76
70676;DHT22;59069;52.242;20.900;2024-03-23T10:57:04;19.98;47.55
70676;DHT22;59069;52.242;20.900;2024-03-23T10:59:31;19.60;49.64
70676;DHT22;59069;52.242;20.900;2024-03-23T11:01:58;19.24;50.60
70676;DHT22;59069;52.242;20.900;2024-03-23T11:04:35;18.86;51.52
70676;DHT22;59069;52.242;20.900;2024-03-23T11:07:01;18.59;52.21
70676;DHT22;59069;52.242;20.900;2024-03-23T11:12:25;18.31;54.24
70676;DHT22;59069;52.242;20.900;2024-03-23T11:15:04;18.27;53.85
70676;DHT22;59069;52.242;20.900;2024-03-23T11:17:30;18.11;54.33
70676;DHT22;59069;52.242;20.900;2024-03-23T11:20:00;18.08;54.83
70676;DHT22;59069;52.242;20.900;2024-03-23T11:22:48;18.08;55.23
70676;DHT22;59069;52.242;20.900;2024-03-23T11:27:47;18.10;53.97
70676;DHT22;59069;52.242;20.900;2024-03-23T11:30:14;18.07;53.59
70676;DHT22;59069;52.242;20.900;2024-03-23T11:32:40;18.11;53.42
70676;DHT22;59069;52.242;20.900;2024-03-23T11:35:06;18.14;53.23
70676;DHT22;59069;52.242;20.900;2024-03-23T11:37:31;18.18;53.04
70676;DHT22;59069;52.242;20.900;2024-03-23T11:39:57;18.30;53.63
70676;DHT22;59069;52.242;20.900;2024-03-23T11:42:22;18.35;52.08
70676;DHT22;59069;52.242;20.900;2024-03-23T11:44:47;18.12;50.75
70676;DHT22;59069;52.242;20.900;2024-03-23T11:47:13;17.97;50.66
70676;DHT22;59069;52.242;20.900;2024-03-23T11:49:38;17.84;50.75
70676;DHT22;59069;52.242;20.900;2024-03-23T11:52:06;17.67;51.24
70676;DHT22;59069;52.242;20.900;2024-03-23T11:54:32;17.57;51.96
70676;DHT22;59069;52.242;20.900;2024-03-23T11:56:59;17.53;52.31
70676;DHT22;59069;52.242;20.900;2024-03-23T11:59:40;17.49;53.08
70676;DHT22;59069;52.242;20.900;2024-03-23T12:02:07;17.54;53.12
70676;DHT22;59069;52.242;20.900;2024-03-23T12:04:33;17.52;53.16
70676;DHT22;59069;52.242;20.900;2024-03-23T12:07:20;17.53;52.40
70676;DHT22;59069;52.242;20.900;2024-03-23T12:09:47;17.63;51.81
70676;DHT22;59069;52.242;20.900;2024-03-23T12:12:18;17.66;51.10
70676;DHT22;59069;52.242;20.900;2024-03-23T12:14:45;17.59;51.17
70676;DHT22;59069;52.242;20.900;2024-03-23T12:17:14;17.47;51.50
70676;DHT22;59069;52.242;20.900;2024-03-23T12:19:41;17.39;52.01
70676;DHT22;59069;52.242;20.900;2024-03-23T12:22:07;17.32;52.44
70676;DHT22;59069;52.242;20.900;2024-03-23T12:24:34;17.28;52.55
70676;DHT22;59069;52.242;20.900;2024-03-23T12:27:04;17.16;52.75
70676;DHT22;59069;52.242;20.900;2024-03-23T12:29:32;17.08;52.91
70676;DHT22;59069;52.242;20.900;2024-03-23T12:32:02;16.99;52.66
70676;DHT22;59069;52.242;20.900;2024-03-23T12:34:28;16.95;52.72
70676;DHT22;59069;52.242;20.900;2024-03-23T12:36:54;16.84;52.69
70676;DHT22;59069;52.242;20.900;2024-03-23T12:39:19;16.75;52.85
70676;DHT22;59069;52.242;20.900;2024-03-23T12:41:48;16.63;53.16
70676;DHT22;59069;52.242;20.900;2024-03-23T12:44:14;16.56;53.49
70676;DHT22;59069;52.242;20.900;2024-03-23T12:46:44;16.44;53.70
70676;DHT22;59069;52.242;20.900;2024-03-23T12:49:09;16.36;53.93
70676;DHT22;59069;52.242;20.900;2024-03-23T12:51:35;16.31;53.99
70676;DHT22;59069;52.242;20.900;2024-03-23T12:54:01;16.24;54.12
70676;DHT22;59069;52.242;20.900;2024-03-23T12:56:26;16.23;54.33
70676;DHT22;59069;52.242;20.900;2024-03-23T12:58:54;16.23;54.37
70676;DHT22;59069;52.242;20.900;2024-03-23T13:01:20;16.21;54.49
70676;DHT22;59069;52.242;20.900;2024-03-23T13:03:47;16.27;54.67
70676;DHT22;59069;52.242;20.900;2024-03-23T13:06:12;16.29;54.66
70676;DHT22;59069;52.242;20.900;2024-03-23T13:08:38;16.30;54.58
70676;DHT22;59069;52.242;20.900;2024-03-23T13:11:04;16.29;54.56
70676;DHT22;59069;52.242;20.900;2024-03-23T13:13:29;16.30;54.82
70676;DHT22;59069;52.242;20.900;2024-03-23T13:15:56;16.27;55.13
70676;DHT22;59069;52.242;20.900;2024-03-23T13:18:22;16.23;55.08
70676;DHT22;59069;52.242;20.900;2024-03-23T13:20:47;16.20;55.02
70676;DHT22;59069;52.242;20.900;2024-03-23T13:23:12;16.17;55.15
70676;DHT22;59069;52.242;20.900;2024-03-23T13:25:38;16.16;55.43
70676;DHT22;59069;52.242;20.900;2024-03-23T13:28:03;16.14;55.56
70676;DHT22;59069;52.242;20.900;2024-03-23T13:30:29;16.17;55.55
70676;DHT22;59069;52.242;20.900;2024-03-23T13:32:54;16.21;55.63
70676;DHT22;59069;52.242;20.900;2024-03-23T13:35:20;16.23;55.67
70676;DHT22;59069;52.242;20.900;2024-03-23T13:37:46;16.24;55.62
70676;DHT22;59069;52.242;20.900;2024-03-23T13:40:11;16.27;55.71
70676;DHT22;59069;52.242;20.900;2024-03-23T13:42:37;16.24;55.80
70676;DHT22;59069;52.242;20.900;2024-03-23T13:45:03;16.26;55.74
70676;DHT22;59069;52.242;20.900;2024-03-23T13:47:29;16.26;56.01
70676;DHT22;59069;52.242;20.900;2024-03-23T13:49:54;16.19;56.56
70676;DHT22;59069;52.242;20.900;2024-03-23T13:52:20;16.16;56.82
70676;DHT22;59069;52.242;20.900;2024-03-23T13:54:48;16.10;56.55
70676;DHT22;59069;52.242;20.900;2024-03-23T13:57:13;16.06;56.52
70676;DHT22;59069;52.242;20.900;2024-03-23T13:59:39;16.02;56.69
70676;DHT22;59069;52.242;20.900;2024-03-23T14:02:04;15.97;57.00
70676;DHT22;59069;52.242;20.900;2024-03-23T14:04:29;15.95;57.01
70676;DHT22;59069;52.242;20.900;2024-03-23T14:06:55;15.93;57.42
70676;DHT22;59069;52.242;20.900;2024-03-23T14:09:20;15.86;57.65
70676;DHT22;59069;52.242;20.900;2024-03-23T14:11:48;15.85;57.51
70676;DHT22;59069;52.242;20.900;2024-03-23T14:14:14;15.79;57.31
70676;DHT22;59069;52.242;20.900;2024-03-23T14:16:45;15.78;57.25
70676;DHT22;59069;52.242;20.900;2024-03-23T14:19:10;15.76;57.31
70676;DHT22;59069;52.242;20.900;2024-03-23T14:21:36;15.73;57.15
70676;DHT22;59069;52.242;20.900;2024-03-23T14:24:01;15.73;57.13
70676;DHT22;59069;52.242;20.900;2024-03-23T14:26:27;15.69;57.18
70676;DHT22;59069;52.242;20.900;2024-03-23T14:28:53;15.65;57.19
70676;DHT22;59069;52.242;20.900;2024-03-23T14:31:18;15.65;57.28
70676;DHT22;59069;52.242;20.900;2024-03-23T14:33:44;15.63;57.44
70676;DHT22;59069;52.242;20.900;2024-03-23T14:36:13;15.62;57.58
70676;DHT22;59069;52.242;20.900;2024-03-23T14:38:38;15.62;57.70
70676;DHT22;59069;52.242;20.900;2024-03-23T14:41:04;15.58;57.81
70676;DHT22;59069;52.242;20.900;2024-03-23T14:43:30;15.55;57.91
70676;DHT22;59069;52.242;20.900;2024-03-23T14:46:12;15.55;58.02
70676;DHT22;59069;52.242;20.900;2024-03-23T14:48:42;15.52;58.40
70676;DHT22;59069;52.242;20.900;2024-03-23T14:51:08;15.52;58.99
70676;DHT22;59069;52.242;20.900;2024-03-23T14:53:35;15.47;59.66
70676;DHT22;59069;52.242;20.900;2024-03-23T14:56:01;15.44;60.00
70676;DHT22;59069;52.242;20.900;2024-03-23T14:58:28;15.38;60.71
70676;DHT22;59069;52.242;20.900;2024-03-23T15:01:02;15.32;61.54
70676;DHT22;59069;52.242;20.900;2024-03-23T15:03:28;15.28;62.26
70676;DHT22;59069;52.242;20.900;2024-03-23T15:05:57;15.16;63.19
70676;DHT22;59069;52.242;20.900;2024-03-23T15:08:23;15.03;64.41
70676;DHT22;59069;52.242;20.900;2024-03-23T15:10:49;14.84;65.64
70676;DHT22;59069;52.242;20.900;2024-03-23T15:13:15;14.57;66.88
70676;DHT22;59069;52.242;20.900;2024-03-23T15:15:41;14.30;68.47
70676;DHT22;59069;52.242;20.900;2024-03-23T15:18:12;14.02;70.10
70676;DHT22;59069;52.242;20.900;2024-03-23T15:20:39;13.75;71.65
70676;DHT22;59069;52.242;20.900;2024-03-23T15:23:04;13.53;72.87
70676;DHT22;59069;52.242;20.900;2024-03-23T15:25:30;13.37;73.99
70676;DHT22;59069;52.242;20.900;2024-03-23T15:27:56;13.19;74.90
70676;DHT22;59069;52.242;20.900;2024-03-23T15:30:23;13.04;75.77
70676;DHT22;59069;52.242;20.900;2024-03-23T15:32:48;12.93;76.35
70676;DHT22;59069;52.242;20.900;2024-03-23T15:35:13;12.82;76.85
70676;DHT22;59069;52.242;20.900;2024-03-23T15:37:39;12.72;77.63
70676;DHT22;59069;52.242;20.900;2024-03-23T15:40:06;12.56;78.47
70676;DHT22;59069;52.242;20.900;2024-03-23T15:42:32;12.48;79.13
70676;DHT22;59069;52.242;20.900;2024-03-23T15:44:57;12.40;79.80
70676;DHT22;59069;52.242;20.900;2024-03-23T15:47:22;12.30;79.98
70676;DHT22;59069;52.242;20.900;2024-03-23T15:49:49;12.20;80.40
70676;DHT22;59069;52.242;20.900;2024-03-23T15:52:15;12.14;81.11
70676;DHT22;59069;52.242;20.900;2024-03-23T15:54:40;12.05;81.79
70676;DHT22;59069;52.242;20.900;2024-03-23T15:57:05;12.01;82.28
70676;DHT22;59069;52.242;20.900;2024-03-23T15:59:32;11.94;82.80
70676;DHT22;59069;52.242;20.900;2024-03-23T16:01:57;11.91;83.03
70676;DHT22;59069;52.242;20.900;2024-03-23T16:04:23;11.83;83.34
70676;DHT22;59069;52.242;20.900;2024-03-23T16:06:48;11.80;83.34
70676;DHT22;59069;52.242;20.900;2024-03-23T16:09:13;11.74;83.42
70676;DHT22;59069;52.242;20.900;2024-03-23T16:11:39;11.77;83.62
70676;DHT22;59069;52.242;20.900;2024-03-23T16:14:04;11.73;83.77
70676;DHT22;59069;52.242;20.900;2024-03-23T16:16:29;11.73;83.96